Terminal Aerodrome Forecast
Issued by NWS

Home | Current Version | Previous Version | Text Only | Print | Product List | Glossary On
Versions: 1 2 3 4 5 6 7 8 9 10 11 12 13 14 15 16 17 18 19 20 21 22 23 24 25
000
FTUS43 KIND 290532
TAFLAF
TAF
KLAF 290532Z 2906/3006 VRB03KT 3SM BR BKN100
      TEMPO 2906/2910 1 1/2SM BR
     FM291000 23005KT 4SM BR SCT040 BKN100
      TEMPO 2911/2913 5SM TSRA BKN030CB
     FM291500 24007KT P6SM VCTS BKN035CB
     FM292300 31006KT P6SM BKN250
      AMD LTD TO CLD VIS AND WIND TIL 291300=

USA.gov is the U.S. government's official web portal to all federal, state and local government web resources and services.